sensor_id;sensor_type;location;lat;lon;timestamp;pressure;altitude;pressure_sealevel;temperature;humidity
37078;BME280;22989;55.998;37.212;2023-04-15T00:00:10;-11298.94;;;-145.39;27.00
37078;BME280;22989;55.998;37.212;2023-04-15T00:02:39;-11298.94;;;-145.39;26.95
37078;BME280;22989;55.998;37.212;2023-04-15T00:05:04;-11298.94;;;-145.39;27.06
37078;BME280;22989;55.998;37.212;2023-04-15T00:07:30;-11298.94;;;-145.39;26.90
37078;BME280;22989;55.998;37.212;2023-04-15T00:09:56;-11298.94;;;-145.39;27.12
37078;BME280;22989;55.998;37.212;2023-04-15T00:12:22;-11298.94;;;-145.39;26.93
37078;BME280;22989;55.998;37.212;2023-04-15T00:14:48;-11298.94;;;-145.39;27.20
37078;BME280;22989;55.998;37.212;2023-04-15T00:17:14;-11298.94;;;-145.39;27.41
37078;BME280;22989;55.998;37.212;2023-04-15T00:19:39;-11298.94;;;-145.39;27.25
37078;BME280;22989;55.998;37.212;2023-04-15T00:22:05;-11298.94;;;-145.39;27.05
37078;BME280;22989;55.998;37.212;2023-04-15T00:24:31;-11298.94;;;-145.39;27.08
37078;BME280;22989;55.998;37.212;2023-04-15T00:26:57;-11298.94;;;-145.39;27.26
37078;BME280;22989;55.998;37.212;2023-04-15T00:29:23;-11298.94;;;-145.39;27.42
37078;BME280;22989;55.998;37.212;2023-04-15T00:31:48;-11298.94;;;-145.39;27.44
37078;BME280;22989;55.998;37.212;2023-04-15T00:34:14;-11298.94;;;-145.39;27.35
37078;BME280;22989;55.998;37.212;2023-04-15T00:36:41;-11298.94;;;-145.39;27.53
37078;BME280;22989;55.998;37.212;2023-04-15T00:39:07;-11298.94;;;-145.39;27.55
37078;BME280;22989;55.998;37.212;2023-04-15T00:41:32;-11298.94;;;-145.39;27.57
37078;BME280;22989;55.998;37.212;2023-04-15T00:43:58;-11298.94;;;-145.39;27.45
37078;BME280;22989;55.998;37.212;2023-04-15T00:46:26;-11298.94;;;-145.39;27.74
37078;BME280;22989;55.998;37.212;2023-04-15T00:48:53;-11298.94;;;-145.39;27.78
37078;BME280;22989;55.998;37.212;2023-04-15T00:51:18;-11298.94;;;-145.39;27.80
37078;BME280;22989;55.998;37.212;2023-04-15T00:53:44;-11298.94;;;-145.39;27.78
37078;BME280;22989;55.998;37.212;2023-04-15T00:56:10;-11298.94;;;-145.39;27.86
37078;BME280;22989;55.998;37.212;2023-04-15T00:58:36;-11298.94;;;-145.39;27.77
37078;BME280;22989;55.998;37.212;2023-04-15T01:01:02;-11298.94;;;-145.39;27.73
37078;BME280;22989;55.998;37.212;2023-04-15T01:03:28;-11298.94;;;-145.39;27.71
37078;BME280;22989;55.998;37.212;2023-04-15T01:05:55;-11298.94;;;-145.39;27.77
37078;BME280;22989;55.998;37.212;2023-04-15T01:08:26;-11298.94;;;-145.39;27.75
37078;BME280;22989;55.998;37.212;2023-04-15T01:10:52;-11298.94;;;-145.39;27.93
37078;BME280;22989;55.998;37.212;2023-04-15T01:13:18;-11298.94;;;-145.39;27.74
37078;BME280;22989;55.998;37.212;2023-04-15T01:15:44;-11298.94;;;-145.39;28.04
37078;BME280;22989;55.998;37.212;2023-04-15T01:18:09;-11298.94;;;-145.39;28.00
37078;BME280;22989;55.998;37.212;2023-04-15T01:20:36;-11298.94;;;-145.39;28.03
37078;BME280;22989;55.998;37.212;2023-04-15T01:23:01;-11298.94;;;-145.39;28.00
37078;BME280;22989;55.998;37.212;2023-04-15T01:25:31;-11298.94;;;-145.39;28.02
37078;BME280;22989;55.998;37.212;2023-04-15T01:27:59;-11298.94;;;-145.39;28.10
37078;BME280;22989;55.998;37.212;2023-04-15T01:30:25;-11298.94;;;-145.39;28.27
37078;BME280;22989;55.998;37.212;2023-04-15T01:32:52;-11298.94;;;-145.39;28.19
37078;BME280;22989;55.998;37.212;2023-04-15T01:35:18;-11298.94;;;-145.39;28.12
37078;BME280;22989;55.998;37.212;2023-04-15T01:37:44;-11298.94;;;-145.39;28.36
37078;BME280;22989;55.998;37.212;2023-04-15T01:40:09;-11298.94;;;-145.39;28.38
37078;BME280;22989;55.998;37.212;2023-04-15T01:42:35;-11298.94;;;-145.39;28.10
37078;BME280;22989;55.998;37.212;2023-04-15T01:45:01;-11298.94;;;-145.39;28.40
37078;BME280;22989;55.998;37.212;2023-04-15T01:47:28;-11298.94;;;-145.39;28.28
37078;BME280;22989;55.998;37.212;2023-04-15T01:49:53;-11298.94;;;-145.39;28.35
37078;BME280;22989;55.998;37.212;2023-04-15T01:52:20;-11298.94;;;-145.39;28.46
37078;BME280;22989;55.998;37.212;2023-04-15T01:54:46;-11298.94;;;-145.39;28.44
37078;BME280;22989;55.998;37.212;2023-04-15T01:57:11;-11298.94;;;-145.39;28.45
37078;BME280;22989;55.998;37.212;2023-04-15T01:59:37;-11298.94;;;-145.39;28.28
37078;BME280;22989;55.998;37.212;2023-04-15T02:02:02;-11298.94;;;-145.39;28.43
37078;BME280;22989;55.998;37.212;2023-04-15T02:04:28;-11298.94;;;-145.39;28.46
37078;BME280;22989;55.998;37.212;2023-04-15T02:06:58;-11298.94;;;-145.39;28.54
37078;BME280;22989;55.998;37.212;2023-04-15T02:09:24;-11298.94;;;-145.39;28.57
37078;BME280;22989;55.998;37.212;2023-04-15T02:11:50;-11298.94;;;-145.39;28.52
37078;BME280;22989;55.998;37.212;2023-04-15T02:14:16;-11298.94;;;-145.39;28.40
37078;BME280;22989;55.998;37.212;2023-04-15T02:16:42;-11298.94;;;-145.39;28.52
37078;BME280;22989;55.998;37.212;2023-04-15T02:19:07;-11298.94;;;-145.39;28.43
37078;BME280;22989;55.998;37.212;2023-04-15T02:21:36;-11298.94;;;-145.39;28.66
37078;BME280;22989;55.998;37.212;2023-04-15T02:24:01;-11298.94;;;-145.39;28.66
37078;BME280;22989;55.998;37.212;2023-04-15T02:26:27;-11298.94;;;-145.39;28.69
37078;BME280;22989;55.998;37.212;2023-04-15T02:28:53;-11298.94;;;-145.39;28.78
37078;BME280;22989;55.998;37.212;2023-04-15T02:31:19;-11298.94;;;-145.39;28.89
37078;BME280;22989;55.998;37.212;2023-04-15T02:33:45;-11298.94;;;-145.39;28.66
37078;BME280;22989;55.998;37.212;2023-04-15T02:36:11;-11298.94;;;-145.39;28.68
37078;BME280;22989;55.998;37.212;2023-04-15T02:38:36;-11298.94;;;-145.39;28.69
37078;BME280;22989;55.998;37.212;2023-04-15T02:41:05;-11298.94;;;-145.39;28.75
37078;BME280;22989;55.998;37.212;2023-04-15T02:43:33;-11298.94;;;-145.39;28.71
37078;BME280;22989;55.998;37.212;2023-04-15T02:45:59;-11298.94;;;-145.39;28.56
37078;BME280;22989;55.998;37.212;2023-04-15T02:48:25;-11298.94;;;-145.39;28.75
37078;BME280;22989;55.998;37.212;2023-04-15T02:50:51;-11298.94;;;-145.39;28.59
37078;BME280;22989;55.998;37.212;2023-04-15T02:53:16;-11298.94;;;-145.39;28.47
37078;BME280;22989;55.998;37.212;2023-04-15T02:55:42;-11298.94;;;-145.39;28.58
37078;BME280;22989;55.998;37.212;2023-04-15T02:58:07;-11298.94;;;-145.39;28.80
37078;BME280;22989;55.998;37.212;2023-04-15T03:00:33;-11298.94;;;-145.39;28.57
37078;BME280;22989;55.998;37.212;2023-04-15T03:03:01;-11298.94;;;-145.39;28.46
37078;BME280;22989;55.998;37.212;2023-04-15T03:05:27;-11298.94;;;-145.39;28.34
37078;BME280;22989;55.998;37.212;2023-04-15T03:07:52;-11298.94;;;-145.39;28.46
37078;BME280;22989;55.998;37.212;2023-04-15T03:10:18;-11298.94;;;-145.39;28.34
37078;BME280;22989;55.998;37.212;2023-04-15T03:12:45;-11298.94;;;-145.39;28.31
37078;BME280;22989;55.998;37.212;2023-04-15T03:15:15;-11298.94;;;-145.39;28.06
37078;BME280;22989;55.998;37.212;2023-04-15T03:17:44;-11298.94;;;-145.39;28.16
37078;BME280;22989;55.998;37.212;2023-04-15T03:20:09;-11298.94;;;-145.39;28.21
37078;BME280;22989;55.998;37.212;2023-04-15T03:22:35;-11298.94;;;-145.39;28.21
37078;BME280;22989;55.998;37.212;2023-04-15T03:25:02;-11298.94;;;-145.39;28.25
37078;BME280;22989;55.998;37.212;2023-04-15T03:27:27;-11298.94;;;-145.39;28.31
37078;BME280;22989;55.998;37.212;2023-04-15T03:29:57;-11298.94;;;-145.39;28.17
37078;BME280;22989;55.998;37.212;2023-04-15T03:32:24;-11298.94;;;-145.39;28.28
37078;BME280;22989;55.998;37.212;2023-04-15T03:34:51;-11298.94;;;-145.39;28.12
37078;BME280;22989;55.998;37.212;2023-04-15T03:37:16;-11298.94;;;-145.39;28.01
37078;BME280;22989;55.998;37.212;2023-04-15T03:39:42;-11298.94;;;-145.39;28.26
37078;BME280;22989;55.998;37.212;2023-04-15T03:42:07;-11298.94;;;-145.39;28.03
37078;BME280;22989;55.998;37.212;2023-04-15T03:44:33;-11298.94;;;-145.39;28.01
37078;BME280;22989;55.998;37.212;2023-04-15T03:46:58;-11298.94;;;-145.39;27.82
37078;BME280;22989;55.998;37.212;2023-04-15T03:49:23;-11298.94;;;-145.39;27.42
37078;BME280;22989;55.998;37.212;2023-04-15T03:51:49;-11298.94;;;-145.39;27.20
37078;BME280;22989;55.998;37.212;2023-04-15T03:54:15;-11298.94;;;-145.39;27.10
37078;BME280;22989;55.998;37.212;2023-04-15T03:56:40;-11298.94;;;-145.39;27.00
37078;BME280;22989;55.998;37.212;2023-04-15T03:59:06;-11298.94;;;-145.39;27.09
37078;BME280;22989;55.998;37.212;2023-04-15T04:01:31;-11298.94;;;-145.39;26.73
37078;BME280;22989;55.998;37.212;2023-04-15T04:03:57;-11298.94;;;-145.39;26.59
37078;BME280;22989;55.998;37.212;2023-04-15T04:06:22;-11298.94;;;-145.39;26.63
37078;BME280;22989;55.998;37.212;2023-04-15T04:08:48;-11298.94;;;-145.39;26.73
37078;BME280;22989;55.998;37.212;2023-04-15T04:11:13;-11298.94;;;-145.39;26.58
37078;BME280;22989;55.998;37.212;2023-04-15T04:13:39;-11298.94;;;-145.39;26.30
37078;BME280;22989;55.998;37.212;2023-04-15T04:16:05;-11298.94;;;-145.39;26.29
37078;BME280;22989;55.998;37.212;2023-04-15T04:18:31;-11298.94;;;-145.39;25.82
37078;BME280;22989;55.998;37.212;2023-04-15T04:20:57;-11298.94;;;-145.39;25.70
37078;BME280;22989;55.998;37.212;2023-04-15T04:23:22;-11298.94;;;-145.39;25.45
37078;BME280;22989;55.998;37.212;2023-04-15T04:25:47;-11298.94;;;-145.39;25.52
37078;BME280;22989;55.998;37.212;2023-04-15T04:28:13;-11298.94;;;-145.39;25.35
37078;BME280;22989;55.998;37.212;2023-04-15T04:30:38;-11298.94;;;-145.39;25.45
37078;BME280;22989;55.998;37.212;2023-04-15T04:33:04;-11298.94;;;-145.39;25.46
37078;BME280;22989;55.998;37.212;2023-04-15T04:35:29;-11298.94;;;-145.39;25.38
37078;BME280;22989;55.998;37.212;2023-04-15T04:37:55;-11298.94;;;-145.39;25.54
37078;BME280;22989;55.998;37.212;2023-04-15T04:40:20;-11298.94;;;-145.39;25.22
37078;BME280;22989;55.998;37.212;2023-04-15T04:42:46;-11298.94;;;-145.39;25.50
37078;BME280;22989;55.998;37.212;2023-04-15T04:45:11;-11298.94;;;-145.39;25.41
37078;BME280;22989;55.998;37.212;2023-04-15T04:47:37;-11298.94;;;-145.39;25.21
37078;BME280;22989;55.998;37.212;2023-04-15T04:50:03;-11298.94;;;-145.39;25.22
37078;BME280;22989;55.998;37.212;2023-04-15T04:52:28;-11298.94;;;-145.39;24.66
37078;BME280;22989;55.998;37.212;2023-04-15T04:54:54;-11298.94;;;-145.39;25.09
37078;BME280;22989;55.998;37.212;2023-04-15T04:57:19;-11298.94;;;-145.39;25.27
37078;BME280;22989;55.998;37.212;2023-04-15T04:59:45;-11298.94;;;-145.39;25.25
37078;BME280;22989;55.998;37.212;2023-04-15T05:02:10;-11298.94;;;-145.39;25.12
37078;BME280;22989;55.998;37.212;2023-04-15T05:04:36;-11298.94;;;-145.39;25.20
37078;BME280;22989;55.998;37.212;2023-04-15T05:07:01;-11298.94;;;-145.39;25.08
37078;BME280;22989;55.998;37.212;2023-04-15T05:09:27;-11298.94;;;-145.39;24.73
37078;BME280;22989;55.998;37.212;2023-04-15T05:11:53;-11298.94;;;-145.39;24.47
37078;BME280;22989;55.998;37.212;2023-04-15T05:14:18;-11298.94;;;-145.39;24.19
37078;BME280;22989;55.998;37.212;2023-04-15T05:16:43;-11298.94;;;-145.39;24.09
37078;BME280;22989;55.998;37.212;2023-04-15T05:19:09;-11298.94;;;-145.39;24.26
37078;BME280;22989;55.998;37.212;2023-04-15T05:21:35;-11298.94;;;-145.39;23.70
37078;BME280;22989;55.998;37.212;2023-04-15T05:24:00;-11298.94;;;-145.39;23.81
37078;BME280;22989;55.998;37.212;2023-04-15T05:26:25;-11298.94;;;-145.39;23.87
37078;BME280;22989;55.998;37.212;2023-04-15T05:28:51;-11298.94;;;-145.39;23.50
37078;BME280;22989;55.998;37.212;2023-04-15T05:31:17;-11298.94;;;-145.39;23.44
37078;BME280;22989;55.998;37.212;2023-04-15T05:33:42;-11298.94;;;-145.39;23.32
37078;BME280;22989;55.998;37.212;2023-04-15T05:36:07;-11298.94;;;-145.39;23.52
37078;BME280;22989;55.998;37.212;2023-04-15T05:38:33;-11298.94;;;-145.39;23.27
37078;BME280;22989;55.998;37.212;2023-04-15T05:40:59;-11298.94;;;-145.39;23.42
37078;BME280;22989;55.998;37.212;2023-04-15T05:43:24;-11298.94;;;-145.39;23.54
37078;BME280;22989;55.998;37.212;2023-04-15T05:45:50;-11298.94;;;-145.39;22.93
37078;BME280;22989;55.998;37.212;2023-04-15T05:48:15;-11298.94;;;-145.39;22.80
37078;BME280;22989;55.998;37.212;2023-04-15T05:50:41;-11298.94;;;-145.39;22.68
37078;BME280;22989;55.998;37.212;2023-04-15T05:53:07;-11298.94;;;-145.39;23.08
37078;BME280;22989;55.998;37.212;2023-04-15T05:55:32;-11298.94;;;-145.39;23.42
37078;BME280;22989;55.998;37.212;2023-04-15T05:57:57;-11298.94;;;-145.39;23.71
37078;BME280;22989;55.998;37.212;2023-04-15T06:00:23;-11298.94;;;-145.39;23.65
37078;BME280;22989;55.998;37.212;2023-04-15T06:02:48;-11298.94;;;-145.39;23.37
37078;BME280;22989;55.998;37.212;2023-04-15T06:05:14;-11298.94;;;-145.39;22.99
37078;BME280;22989;55.998;37.212;2023-04-15T06:07:39;-11298.94;;;-145.39;22.75
37078;BME280;22989;55.998;37.212;2023-04-15T06:10:06;-11298.94;;;-145.39;22.63
37078;BME280;22989;55.998;37.212;2023-04-15T06:12:32;-11298.94;;;-145.39;22.89
37078;BME280;22989;55.998;37.212;2023-04-15T06:14:57;-11298.94;;;-145.39;22.73
37078;BME280;22989;55.998;37.212;2023-04-15T06:17:23;-11298.94;;;-145.39;22.83
37078;BME280;22989;55.998;37.212;2023-04-15T06:19:48;-11298.94;;;-145.39;22.32
37078;BME280;22989;55.998;37.212;2023-04-15T06:22:15;-11298.94;;;-145.39;22.19
37078;BME280;22989;55.998;37.212;2023-04-15T06:24:41;-11298.94;;;-145.39;22.38
37078;BME280;22989;55.998;37.212;2023-04-15T06:27:06;-11298.94;;;-145.39;22.05
37078;BME280;22989;55.998;37.212;2023-04-15T06:29:32;-11298.94;;;-145.39;22.05
37078;BME280;22989;55.998;37.212;2023-04-15T06:31:57;-11298.94;;;-145.39;22.05
37078;BME280;22989;55.998;37.212;2023-04-15T06:34:23;-11298.94;;;-145.39;21.74
37078;BME280;22989;55.998;37.212;2023-04-15T06:36:48;-11298.94;;;-145.39;21.21
37078;BME280;22989;55.998;37.212;2023-04-15T06:39:14;-11298.94;;;-145.39;21.66
37078;BME280;22989;55.998;37.212;2023-04-15T06:41:40;-11298.94;;;-145.39;21.72
37078;BME280;22989;55.998;37.212;2023-04-15T06:44:05;-11298.94;;;-145.39;21.61
37078;BME280;22989;55.998;37.212;2023-04-15T06:46:31;-11298.94;;;-145.39;21.11
37078;BME280;22989;55.998;37.212;2023-04-15T06:48:56;-11298.94;;;-145.39;21.28
37078;BME280;22989;55.998;37.212;2023-04-15T06:51:22;-11298.94;;;-145.39;21.20
37078;BME280;22989;55.998;37.212;2023-04-15T06:53:48;-11298.94;;;-145.39;20.67
37078;BME280;22989;55.998;37.212;2023-04-15T06:56:14;-11298.94;;;-145.39;20.78
37078;BME280;22989;55.998;37.212;2023-04-15T06:58:40;-11298.94;;;-145.39;20.26
37078;BME280;22989;55.998;37.212;2023-04-15T07:01:05;-11298.94;;;-145.39;19.75
37078;BME280;22989;55.998;37.212;2023-04-15T07:03:31;-11298.94;;;-145.39;19.63
37078;BME280;22989;55.998;37.212;2023-04-15T07:05:56;-11298.94;;;-145.39;19.98
37078;BME280;22989;55.998;37.212;2023-04-15T07:08:22;-11298.94;;;-145.39;19.64
37078;BME280;22989;55.998;37.212;2023-04-15T07:10:48;-11298.94;;;-145.39;19.98
37078;BME280;22989;55.998;37.212;2023-04-15T07:13:13;-11298.94;;;-145.39;19.88
37078;BME280;22989;55.998;37.212;2023-04-15T07:15:39;-11298.94;;;-145.39;19.63
37078;BME280;22989;55.998;37.212;2023-04-15T07:18:04;-11298.94;;;-145.39;19.40
37078;BME280;22989;55.998;37.212;2023-04-15T07:20:30;-11298.94;;;-145.39;19.27
37078;BME280;22989;55.998;37.212;2023-04-15T07:22:56;-11298.94;;;-145.39;19.43
37078;BME280;22989;55.998;37.212;2023-04-15T07:25:21;-11298.94;;;-145.39;19.83
37078;BME280;22989;55.998;37.212;2023-04-15T07:27:47;-11298.94;;;-145.39;19.50
37078;BME280;22989;55.998;37.212;2023-04-15T07:30:12;-11298.94;;;-145.39;19.75
37078;BME280;22989;55.998;37.212;2023-04-15T07:32:38;-11298.94;;;-145.39;20.01
37078;BME280;22989;55.998;37.212;2023-04-15T07:35:03;-11298.94;;;-145.39;20.06
37078;BME280;22989;55.998;37.212;2023-04-15T07:37:29;-11298.94;;;-145.39;20.00
37078;BME280;22989;55.998;37.212;2023-04-15T07:39:55;-11298.94;;;-145.39;20.26
37078;BME280;22989;55.998;37.212;2023-04-15T07:42:20;-11298.94;;;-145.39;20.03
37078;BME280;22989;55.998;37.212;2023-04-15T07:44:46;-11298.94;;;-145.39;20.38
37078;BME280;22989;55.998;37.212;2023-04-15T07:47:11;-11298.94;;;-145.39;20.77
37078;BME280;22989;55.998;37.212;2023-04-15T07:49:37;-11298.94;;;-145.39;20.74
37078;BME280;22989;55.998;37.212;2023-04-15T07:52:02;-11298.94;;;-145.39;20.99
37078;BME280;22989;55.998;37.212;2023-04-15T07:54:28;-11298.94;;;-145.39;21.43
37078;BME280;22989;55.998;37.212;2023-04-15T07:56:53;-11298.94;;;-145.39;21.25
37078;BME280;22989;55.998;37.212;2023-04-15T07:59:20;-11298.94;;;-145.39;20.95
37078;BME280;22989;55.998;37.212;2023-04-15T08:01:45;-11298.94;;;-145.39;20.94
37078;BME280;22989;55.998;37.212;2023-04-15T08:04:11;-11298.94;;;-145.39;20.97
37078;BME280;22989;55.998;37.212;2023-04-15T08:06:36;-11298.94;;;-145.39;20.86
37078;BME280;22989;55.998;37.212;2023-04-15T08:09:04;-11298.94;;;-145.39;20.67
37078;BME280;22989;55.998;37.212;2023-04-15T08:11:29;-11298.94;;;-145.39;20.80
37078;BME280;22989;55.998;37.212;2023-04-15T08:13:55;-11298.94;;;-145.39;21.21
37078;BME280;22989;55.998;37.212;2023-04-15T08:16:22;-11298.94;;;-145.39;21.50
37078;BME280;22989;55.998;37.212;2023-04-15T08:18:49;-11298.94;;;-145.39;21.29
37078;BME280;22989;55.998;37.212;2023-04-15T08:21:15;-11298.94;;;-145.39;21.25
37078;BME280;22989;55.998;37.212;2023-04-15T08:23:40;-11298.94;;;-145.39;20.63
37078;BME280;22989;55.998;37.212;2023-04-15T08:26:07;-11298.94;;;-145.39;20.90
37078;BME280;22989;55.998;37.212;2023-04-15T08:28:32;-11298.94;;;-145.39;20.97
37078;BME280;22989;55.998;37.212;2023-04-15T08:30:58;-11298.94;;;-145.39;20.99
37078;BME280;22989;55.998;37.212;2023-04-15T08:33:24;-11298.94;;;-145.39;21.08
37078;BME280;22989;55.998;37.212;2023-04-15T08:35:49;-11298.94;;;-145.39;20.62
37078;BME280;22989;55.998;37.212;2023-04-15T08:38:15;-11298.94;;;-145.39;21.26
37078;BME280;22989;55.998;37.212;2023-04-15T08:40:42;-11298.94;;;-145.39;21.14
37078;BME280;22989;55.998;37.212;2023-04-15T08:43:20;-11298.94;;;-145.39;21.15
37078;BME280;22989;55.998;37.212;2023-04-15T08:45:49;-11298.94;;;-145.39;21.57
37078;BME280;22989;55.998;37.212;2023-04-15T08:48:15;-11298.94;;;-145.39;21.45
37078;BME280;22989;55.998;37.212;2023-04-15T08:50:41;-11298.94;;;-145.39;21.36
37078;BME280;22989;55.998;37.212;2023-04-15T08:53:07;-11298.94;;;-145.39;21.34
37078;BME280;22989;55.998;37.212;2023-04-15T08:55:33;-11298.94;;;-145.39;21.15
37078;BME280;22989;55.998;37.212;2023-04-15T08:58:00;-11298.94;;;-145.39;21.22
37078;BME280;22989;55.998;37.212;2023-04-15T09:00:26;-11298.94;;;-145.39;21.09
37078;BME280;22989;55.998;37.212;2023-04-15T09:02:53;-11298.94;;;-145.39;21.12
37078;BME280;22989;55.998;37.212;2023-04-15T09:05:20;-11298.94;;;-145.39;21.05
37078;BME280;22989;55.998;37.212;2023-04-15T09:07:45;-11298.94;;;-145.39;21.05
37078;BME280;22989;55.998;37.212;2023-04-15T09:10:11;-11298.94;;;-145.39;20.98
37078;BME280;22989;55.998;37.212;2023-04-15T09:12:37;-11298.94;;;-145.39;20.80
37078;BME280;22989;55.998;37.212;2023-04-15T09:15:02;-11298.94;;;-145.39;20.74
37078;BME280;22989;55.998;37.212;2023-04-15T09:17:28;-11298.94;;;-145.39;20.88
37078;BME280;22989;55.998;37.212;2023-04-15T09:20:07;-11298.94;;;-145.39;20.52
37078;BME280;22989;55.998;37.212;2023-04-15T09:22:32;-11298.94;;;-145.39;20.54
37078;BME280;22989;55.998;37.212;2023-04-15T09:24:58;-11298.94;;;-145.39;20.40
37078;BME280;22989;55.998;37.212;2023-04-15T09:27:24;-11298.94;;;-145.39;20.42
37078;BME280;22989;55.998;37.212;2023-04-15T09:29:50;-11298.94;;;-145.39;20.19
37078;BME280;22989;55.998;37.212;2023-04-15T09:32:17;-11298.94;;;-145.39;20.26
37078;BME280;22989;55.998;37.212;2023-04-15T09:34:43;-11298.94;;;-145.39;19.96
37078;BME280;22989;55.998;37.212;2023-04-15T09:37:10;-11298.94;;;-145.39;19.67
37078;BME280;22989;55.998;37.212;2023-04-15T09:39:47;-11298.94;;;-145.39;19.73
37078;BME280;22989;55.998;37.212;2023-04-15T09:42:14;-11298.94;;;-145.39;20.05
37078;BME280;22989;55.998;37.212;2023-04-15T09:44:41;-11298.94;;;-145.39;19.90
37078;BME280;22989;55.998;37.212;2023-04-15T09:47:07;-11298.94;;;-145.39;19.85
37078;BME280;22989;55.998;37.212;2023-04-15T09:49:32;-11298.94;;;-145.39;20.03
37078;BME280;22989;55.998;37.212;2023-04-15T09:51:59;-11298.94;;;-145.39;19.40
37078;BME280;22989;55.998;37.212;2023-04-15T09:54:27;-11298.94;;;-145.39;19.86
37078;BME280;22989;55.998;37.212;2023-04-15T09:57:03;-11298.94;;;-145.39;19.63
37078;BME280;22989;55.998;37.212;2023-04-15T09:59:29;-11298.94;;;-145.39;19.83
37078;BME280;22989;55.998;37.212;2023-04-15T10:01:54;-11298.94;;;-145.39;19.56
37078;BME280;22989;55.998;37.212;2023-04-15T10:04:21;-11298.94;;;-145.39;19.44
37078;BME280;22989;55.998;37.212;2023-04-15T10:06:46;-11298.94;;;-145.39;19.58
37078;BME280;22989;55.998;37.212;2023-04-15T10:09:12;-11298.94;;;-145.39;19.42
37078;BME280;22989;55.998;37.212;2023-04-15T10:11:38;-11298.94;;;-145.39;19.53
37078;BME280;22989;55.998;37.212;2023-04-15T10:14:03;-11298.94;;;-145.39;19.53
37078;BME280;22989;55.998;37.212;2023-04-15T10:16:30;-11298.94;;;-145.39;19.58
37078;BME280;22989;55.998;37.212;2023-04-15T10:18:56;-11298.94;;;-145.39;19.58
37078;BME280;22989;55.998;37.212;2023-04-15T10:21:24;-11298.94;;;-145.39;19.45
37078;BME280;22989;55.998;37.212;2023-04-15T10:23:49;-11298.94;;;-145.39;19.40
37078;BME280;22989;55.998;37.212;2023-04-15T10:26:15;-11298.94;;;-145.39;19.30
37078;BME280;22989;55.998;37.212;2023-04-15T10:28:42;-11298.94;;;-145.39;19.40
37078;BME280;22989;55.998;37.212;2023-04-15T10:31:07;-11298.94;;;-145.39;19.30
37078;BME280;22989;55.998;37.212;2023-04-15T10:33:33;-11298.94;;;-145.39;18.94
37078;BME280;22989;55.998;37.212;2023-04-15T10:35:59;-11298.94;;;-145.39;19.22
37078;BME280;22989;55.998;37.212;2023-04-15T10:41:21;-11298.94;;;-145.39;18.93
37078;BME280;22989;55.998;37.212;2023-04-15T10:43:47;-11298.94;;;-145.39;18.86
37078;BME280;22989;55.998;37.212;2023-04-15T10:46:15;-11298.94;;;-145.39;18.99
37078;BME280;22989;55.998;37.212;2023-04-15T10:48:46;-11298.94;;;-145.39;19.03
37078;BME280;22989;55.998;37.212;2023-04-15T10:51:12;-11298.94;;;-145.39;19.09
37078;BME280;22989;55.998;37.212;2023-04-15T10:53:38;-11298.94;;;-145.39;19.27
37078;BME280;22989;55.998;37.212;2023-04-15T10:56:06;-11298.94;;;-145.39;18.81
37078;BME280;22989;55.998;37.212;2023-04-15T10:58:41;-11298.94;;;-145.39;19.11
37078;BME280;22989;55.998;37.212;2023-04-15T11:01:07;-11298.94;;;-145.39;18.99
37078;BME280;22989;55.998;37.212;2023-04-15T11:03:35;-11298.94;;;-145.39;19.11
37078;BME280;22989;55.998;37.212;2023-04-15T11:06:02;-11298.94;;;-145.39;19.04
37078;BME280;22989;55.998;37.212;2023-04-15T11:11:11;-11298.94;;;-145.39;19.16
37078;BME280;22989;55.998;37.212;2023-04-15T11:13:36;-11298.94;;;-145.39;19.23
37078;BME280;22989;55.998;37.212;2023-04-15T11:16:12;-11298.94;;;-145.39;19.08
37078;BME280;22989;55.998;37.212;2023-04-15T11:18:38;-11298.94;;;-145.39;19.01
37078;BME280;22989;55.998;37.212;2023-04-15T11:21:04;-11298.94;;;-145.39;19.09
37078;BME280;22989;55.998;37.212;2023-04-15T11:23:34;-11298.94;;;-145.39;18.76
37078;BME280;22989;55.998;37.212;2023-04-15T11:26:00;-11298.94;;;-145.39;18.77
37078;BME280;22989;55.998;37.212;2023-04-15T11:28:27;-11298.94;;;-145.39;18.95
37078;BME280;22989;55.998;37.212;2023-04-15T11:30:53;-11298.94;;;-145.39;18.92
37078;BME280;22989;55.998;37.212;2023-04-15T11:33:20;-11298.94;;;-145.39;18.97
37078;BME280;22989;55.998;37.212;2023-04-15T11:35:46;-11298.94;;;-145.39;19.03
37078;BME280;22989;55.998;37.212;2023-04-15T11:38:12;-11298.94;;;-145.39;19.09
37078;BME280;22989;55.998;37.212;2023-04-15T11:40:38;-11298.94;;;-145.39;19.20
37078;BME280;22989;55.998;37.212;2023-04-15T11:43:08;-11298.94;;;-145.39;19.30
37078;BME280;22989;55.998;37.212;2023-04-15T11:45:35;-11298.94;;;-145.39;19.29
37078;BME280;22989;55.998;37.212;2023-04-15T11:48:07;-11298.94;;;-145.39;18.92
37078;BME280;22989;55.998;37.212;2023-04-15T11:50:33;-11298.94;;;-145.39;19.15
37078;BME280;22989;55.998;37.212;2023-04-15T11:53:02;-11298.94;;;-145.39;18.99
37078;BME280;22989;55.998;37.212;2023-04-15T11:55:29;-11298.94;;;-145.39;19.15
37078;BME280;22989;55.998;37.212;2023-04-15T12:00:39;-11298.94;;;-145.39;19.19
37078;BME280;22989;55.998;37.212;2023-04-15T12:03:11;-11298.94;;;-145.39;19.29
37078;BME280;22989;55.998;37.212;2023-04-15T12:06:01;-11298.94;;;-145.39;19.22
37078;BME280;22989;55.998;37.212;2023-04-15T12:08:22;-11298.94;;;-145.39;19.17
37078;BME280;22989;55.998;37.212;2023-04-15T12:10:48;-11298.94;;;-145.39;19.17
37078;BME280;22989;55.998;37.212;2023-04-15T12:13:13;-11298.94;;;-145.39;19.25
37078;BME280;22989;55.998;37.212;2023-04-15T12:15:39;-11298.94;;;-145.39;19.10
37078;BME280;22989;55.998;37.212;2023-04-15T12:18:04;-11298.94;;;-145.39;19.12
37078;BME280;22989;55.998;37.212;2023-04-15T12:20:30;-11298.94;;;-145.39;19.23
37078;BME280;22989;55.998;37.212;2023-04-15T12:23:04;-11298.94;;;-145.39;19.25